81IL weather

Illinois Valley Parachute Club Airport
Minier, Illinois, United States

Public forecast

Using degrees Fahrenheit for public forecast. Weather courtesy of forecast.io.

Closest aviation weather report (METAR) to Illinois Valley Parachute Club Airport

Closest report is Logan County Airport, 16.6 nm (30.7 km) S. Retrieved 2020/05/31 13:55 UTC (27 minutes ago):

KAAA 311355Z AUTO 09007KT 10SM CLR 18/06 A3033 RMK AO2 T01830058

Closest aviation forecast (TAF) to Illinois Valley Parachute Club Airport

Closest forecast is Central Illinois Regional Airport at Bloomington-Normal, 20.3 nm (37.6 km) E. Retrieved 2020/05/31 13:40 UTC (42 minutes ago):

TAF KBMI 311237Z 3113/0112 08007KT P6SM SKC FM311500 11007KT P6SM SKC FM011000 15007KT P6SM BKN100